Airport ICAO


11:53 UTC

24°C

Clear skies


An affordable passengers' Moving Map for your aircraft. Made for the iPad and the iPhone
More information here

LFAT Paris Plage


Le Tourquet FRANCE   VFR CAVOK


METAR LFAT 191130Z AUTO VRB03KT CAVOK 24/14 Q1024 NOSIG 0h23min

TAF LFAT 191100Z 1912/1921 12006KT CAVOK 0h53min





NOTAMS

OPEN